Monterey, IN (46960)

07:55 EDT le 20 septembre 2014 (GMT -0400)
400 west | Change Station
CLOSE
Current Station
Stations météorologiques personnelles
Location: Rochester, IN
Altitude: 745 ft
Stations météo à proximité

Alt. 745 ft 41.09 °N, 86.32 °W | Updated 6 seconds ago

Ciel dégagé
Ciel dégagé
54.6 ° F
Paraît 54.6 ° F
N
0.0
Vent Variable Vent de SSE
Gusts 3.0 mph

Aujourd'hui
Haut(e) -- | Bas -- ° F
--% Risque de précip.
Hier
Haut(e) -- | Bas -- ° F
Precip. -- pouce
7:31 AM 7:46 PM
Lune descendante, 13% visible
Pression 29.97 pouce
Visibilité 10.0 Miles terrestres
Nuages Ciel dégagé
Point de rosée 53 ° F
Humidité 95%
Précipitations 0.00 pouce
Profondeur de la couche neigeuse Non disponible.
UV 0.0 sur 12
Pollen 5.60 sur 12
Qualité de l'air Non disponible.
Flu Activity Non disponible.
METAR KOXI 201135Z AUTO 20005KT 10SM CLR 13/10 A2997 RMK AO1 T01260101

More Conditions Fewer Conditions

Pression 29.97 pouce
Visibilité 10.0 Miles terrestres
Nuages Ciel dégagé
Point de rosée 53 ° F
Humidité 95%
Précipitations 0.00 pouce
Profondeur de la couche neigeuse Non disponible.
UV 0.0 sur 12
Pollen 5.60 sur 12
Qualité de l'air Non disponible.
Flu Activity Non disponible.
METAR KOXI 201135Z AUTO 20005KT 10SM CLR 13/10 A2997 RMK AO1 T01260101

More Conditions Fewer Conditions

10-Day Weather Forecast

Almanac

Astronomie

Sep. 20, 2014 Lever Coucher
Temps réel 07:31 EDT 19:46 EDT
Crépuscule civil 07:04 EDT 20:14 EDT
Crépuscule nautique 06:31 EDT 20:46 EDT
Crépuscule astronomique 05:58 EDT 21:19 EDT
Lune 04:08 EDT 17:51 EDT
Durée de lumière visible 13h 10m
Longueur du jour
12h 15m
Tomorrow will be 2m 42s shorter.
Lune descendante, 13% of the Moon is Illuminated
Aujourd'hui
Lune descendante
Sep 24
Nouveau
Oct 1
Premier quartier
Oct 8
Pleine lune
Oct 15
Dernier quartier

Extrêmes aujourd'hui

State Highs State Lows

Community

WunderPhotos

Upload Photos

1,754,835 Photos téléchargées !

Nearby

Épaisseur de neige

Station Depth Altitude
Pas de nouvelles chutes de neige

Activité sismique

Ville Distance Mag. Time & Date
No recent earthquake activity has been reported nearby.
Minimum magnitude displayed is 2.5.

Températures des eaux côtières

Lieu Température
Aucun rapport de station

Stations météo à proximité